createdAt,value
2019-05-26T00:00:59.751Z,95172.62
2019-05-26T00:03:28.766Z,95173.81
2019-05-26T00:05:57.699Z,95176.92
2019-05-26T00:08:26.712Z,95184.73
2019-05-26T00:10:55.440Z,95183.94
2019-05-26T00:13:24.529Z,95182.05
2019-05-26T00:15:53.165Z,95177.23
2019-05-26T00:18:21.785Z,95178.03
2019-05-26T00:20:50.353Z,95180.49
2019-05-26T00:23:19.352Z,95182.23
2019-05-26T00:25:48.888Z,95178.76
2019-05-26T00:28:17.505Z,95181.34
2019-05-26T00:30:46.400Z,95185.87
2019-05-26T00:33:15.318Z,95176.35
2019-05-26T00:35:44.030Z,95186.91
2019-05-26T00:38:12.743Z,95188.16
2019-05-26T00:40:41.371Z,95190.97
2019-05-26T00:43:10.534Z,95191.69
2019-05-26T00:45:39.389Z,95185.67
2019-05-26T00:48:09.076Z,95182.49
2019-05-26T00:50:38.506Z,95184.90
2019-05-26T00:53:07.223Z,95189.45
2019-05-26T00:55:36.148Z,95181.16
2019-05-26T00:58:04.779Z,95186.88
2019-05-26T01:00:44.000Z,95189.27
2019-05-26T01:03:14.035Z,95191.39
2019-05-26T01:05:43.650Z,95191.43
2019-05-26T01:08:12.372Z,95190.48
2019-05-26T01:10:41.408Z,95193.88
2019-05-26T01:13:10.107Z,95197.36
2019-05-26T01:15:39.014Z,95192.53
2019-05-26T01:18:08.500Z,95195.92
2019-05-26T01:20:37.420Z,95193.75
2019-05-26T01:23:06.066Z,95195.77
2019-05-26T01:25:35.032Z,95200.33
2019-05-26T01:28:04.716Z,95203.94
2019-05-26T01:30:39.349Z,95203.73
2019-05-26T01:33:08.743Z,95210.44
2019-05-26T01:35:41.564Z,95208.05
2019-05-26T01:38:23.113Z,95210.52
2019-05-26T01:40:44.909Z,95211.53
2019-05-26T01:43:13.955Z,95210.44
2019-05-26T01:45:42.600Z,95204.60
2019-05-26T01:48:11.234Z,95195.42
2019-05-26T01:50:39.920Z,95203.13
2019-05-26T01:53:08.978Z,95193.19
2019-05-26T01:55:38.143Z,95196.50
2019-05-26T01:58:07.702Z,95188.41
2019-05-26T02:00:36.351Z,95199.38
2019-05-26T02:03:05.601Z,95188.86
2019-05-26T02:05:34.241Z,95188.56
2019-05-26T02:08:03.761Z,95187.68
2019-05-26T02:10:32.761Z,95186.83
2019-05-26T02:13:01.565Z,95191.73
2019-05-26T02:15:30.714Z,95188.46
2019-05-26T02:17:59.565Z,95192.52
2019-05-26T02:20:28.340Z,95185.22
2019-05-26T02:22:56.985Z,95188.53
2019-05-26T02:25:26.527Z,95193.43
2019-05-26T02:27:56.112Z,95195.73
2019-05-26T02:30:25.024Z,95195.89
2019-05-26T02:32:53.969Z,95193.85
2019-05-26T02:35:22.825Z,95189.88
2019-05-26T02:37:51.677Z,95192.97
2019-05-26T02:40:21.787Z,95194.27
2019-05-26T02:42:50.436Z,95197.22
2019-05-26T02:45:22.060Z,95202.62
2019-05-26T02:47:51.099Z,95201.73
2019-05-26T02:50:20.512Z,95206.43
2019-05-26T02:52:49.158Z,95206.63
2019-05-26T02:55:19.739Z,95204.27
2019-05-26T02:57:50.082Z,95204.48
2019-05-26T03:00:25.546Z,95206.37
2019-05-26T03:02:55.249Z,95200.80
2019-05-26T03:05:23.981Z,95205.48
2019-05-26T03:07:53.755Z,95202.89
2019-05-26T03:10:23.418Z,95196.09
2019-05-26T03:12:53.838Z,95193.09
2019-05-26T03:15:23.642Z,95200.14
2019-05-26T03:17:54.829Z,95200.47
2019-05-26T03:20:23.756Z,95202.20
2019-05-26T03:22:56.658Z,95205.63
2019-05-26T03:25:25.580Z,95206.28
2019-05-26T03:27:54.327Z,95202.98
2019-05-26T03:30:25.438Z,95206.93
2019-05-26T03:32:54.734Z,95209.70
2019-05-26T03:35:24.266Z,95212.53
2019-05-26T03:37:53.059Z,95216.64
2019-05-26T03:40:22.029Z,95212.33
2019-05-26T03:42:51.571Z,95212.56
2019-05-26T03:45:31.592Z,95214.27
2019-05-26T03:48:01.063Z,95216.60
2019-05-26T03:50:29.714Z,95212.93
2019-05-26T03:52:58.361Z,95216.27
2019-05-26T03:55:28.027Z,95215.90
2019-05-26T03:57:56.689Z,95221.18
2019-05-26T04:00:25.327Z,95217.50
2019-05-26T04:02:54.985Z,95214.13
2019-05-26T04:05:24.599Z,95216.30
2019-05-26T04:07:54.058Z,95225.53
2019-05-26T04:10:23.085Z,95230.87
2019-05-26T04:12:52.088Z,95226.92
2019-05-26T04:15:21.309Z,95229.52
2019-05-26T04:17:50.072Z,95233.93
2019-05-26T04:20:18.756Z,95232.47
2019-05-26T04:22:47.606Z,95224.29
2019-05-26T04:25:16.237Z,95226.46
2019-05-26T04:27:45.787Z,95226.70
2019-05-26T04:30:15.065Z,95227.03
2019-05-26T04:32:43.933Z,95225.38
2019-05-26T04:35:13.696Z,95229.53
2019-05-26T04:37:43.379Z,95234.09
2019-05-26T04:40:26.371Z,95233.11
2019-05-26T04:42:43.710Z,95232.08
2019-05-26T04:45:14.853Z,95235.98
2019-05-26T04:47:43.837Z,95230.57
2019-05-26T04:50:12.941Z,95235.56
2019-05-26T04:52:41.968Z,95234.30
2019-05-26T04:55:10.907Z,95234.30
2019-05-26T04:57:40.420Z,95228.30
2019-05-26T05:00:10.480Z,95228.83
2019-05-26T05:02:41.686Z,95233.27
2019-05-26T05:05:11.578Z,95232.08
2019-05-26T05:07:39.973Z,95231.00
2019-05-26T05:10:08.798Z,95233.75
2019-05-26T05:12:37.490Z,95235.03
2019-05-26T05:15:09.442Z,95227.81
2019-05-26T05:17:38.079Z,95228.41
2019-05-26T05:20:08.025Z,95236.11
2019-05-26T05:22:36.655Z,95230.63
2019-05-26T05:25:14.685Z,95232.53
2019-05-26T05:27:39.944Z,95229.17
2019-05-26T05:30:09.016Z,95233.30
2019-05-26T05:32:37.644Z,95227.34
2019-05-26T05:35:08.733Z,95226.33
2019-05-26T05:37:37.297Z,95224.73
2019-05-26T05:40:08.287Z,95219.27
2019-05-26T05:42:36.929Z,95217.96
2019-05-26T05:45:08.236Z,95217.78
2019-05-26T05:47:37.009Z,95218.41
2019-05-26T05:50:07.446Z,95226.07
2019-05-26T05:52:36.102Z,95225.69
2019-05-26T05:55:06.035Z,95221.33
2019-05-26T05:57:34.711Z,95220.80
2019-05-26T06:00:05.219Z,95219.41
2019-05-26T06:02:33.860Z,95224.79
2019-05-26T06:05:02.424Z,95225.71
2019-05-26T06:07:31.056Z,95222.39
2019-05-26T06:09:59.698Z,95222.97
2019-05-26T06:12:28.336Z,95227.98
2019-05-26T06:14:57.116Z,95227.99
2019-05-26T06:17:25.681Z,95227.48
2019-05-26T06:19:54.313Z,95224.59
2019-05-26T06:22:22.954Z,95225.34
2019-05-26T06:24:51.593Z,95225.86
2019-05-26T06:27:20.235Z,95224.23
2019-05-26T06:29:58.433Z,95225.53
2019-05-26T06:32:19.243Z,95223.34
2019-05-26T06:34:47.804Z,95228.84
2019-05-26T06:37:16.414Z,95224.09
2019-05-26T06:39:45.000Z,95219.56
2019-05-26T06:42:13.639Z,95220.28
2019-05-26T06:44:52.952Z,95220.86
2019-05-26T06:47:12.753Z,95213.38
2019-05-26T06:49:41.404Z,95219.34
2019-05-26T06:52:09.999Z,95223.07
2019-05-26T06:54:38.636Z,95220.77
2019-05-26T06:57:07.271Z,95222.21
2019-05-26T06:59:36.066Z,95226.81
2019-05-26T07:02:05.008Z,95232.48
2019-05-26T07:04:33.651Z,95234.66
2019-05-26T07:07:02.292Z,95228.84
2019-05-26T07:09:30.927Z,95231.49
2019-05-26T07:12:00.599Z,95227.89
2019-05-26T07:14:29.342Z,95228.24
2019-05-26T07:16:57.960Z,95234.36
2019-05-26T07:19:26.626Z,95236.98
2019-05-26T07:21:55.266Z,95227.62
2019-05-26T07:24:23.904Z,95229.59
2019-05-26T07:26:52.390Z,95227.57
2019-05-26T07:29:21.009Z,95229.86
2019-05-26T07:31:49.572Z,95221.64
2019-05-26T07:34:18.335Z,95224.53
2019-05-26T07:36:46.865Z,95223.17
2019-05-26T07:39:15.514Z,95223.20
2019-05-26T07:41:44.104Z,95223.45
2019-05-26T07:44:12.753Z,95223.42
2019-05-26T07:46:41.297Z,95216.77
2019-05-26T07:49:09.941Z,95220.97
2019-05-26T07:51:38.569Z,95225.05
2019-05-26T07:54:07.232Z,95221.97
2019-05-26T07:56:35.790Z,95220.91
2019-05-26T07:59:04.751Z,95223.95
2019-05-26T08:01:36.056Z,95237.36
2019-05-26T08:04:03.726Z,95237.02
2019-05-26T08:06:32.285Z,95239.19
2019-05-26T08:09:00.915Z,95228.28
2019-05-26T08:11:29.570Z,95235.33
2019-05-26T08:13:58.193Z,95236.75
2019-05-26T08:16:26.819Z,95239.91
2019-05-26T08:18:55.445Z,95246.20
2019-05-26T08:21:24.300Z,95240.26
2019-05-26T08:23:52.922Z,95239.66
2019-05-26T08:26:21.603Z,95239.94
2019-05-26T08:28:50.908Z,95243.89
2019-05-26T08:31:19.538Z,95245.44
2019-05-26T08:33:48.182Z,95245.63
2019-05-26T08:36:16.894Z,95240.27
2019-05-26T08:38:45.674Z,95241.14
2019-05-26T08:41:14.297Z,95236.81
2019-05-26T08:43:42.923Z,95227.83
2019-05-26T08:46:11.575Z,95222.67
2019-05-26T08:48:40.190Z,95223.81
2019-05-26T08:51:08.827Z,95221.94
2019-05-26T08:53:37.465Z,95226.73
2019-05-26T08:56:06.003Z,95220.56
2019-05-26T08:58:34.656Z,95217.88
2019-05-26T09:01:03.283Z,95218.02
2019-05-26T09:03:31.924Z,95225.16
2019-05-26T09:06:00.553Z,95215.81
2019-05-26T09:08:29.146Z,95208.84
2019-05-26T09:10:57.783Z,95201.38
2019-05-26T09:13:26.493Z,95207.07
2019-05-26T09:15:55.124Z,95212.41
2019-05-26T09:18:23.838Z,95214.77
2019-05-26T09:20:52.543Z,95216.94
2019-05-26T09:23:21.168Z,95215.61
2019-05-26T09:25:49.802Z,95216.33
2019-05-26T09:28:18.429Z,95214.57
2019-05-26T09:30:47.135Z,95210.12
2019-05-26T09:33:15.797Z,95214.58
2019-05-26T09:35:44.549Z,95203.24
2019-05-26T09:38:13.199Z,95206.52
2019-05-26T09:40:41.892Z,95202.91
2019-05-26T09:43:15.979Z,95198.38
2019-05-26T09:45:40.989Z,95197.14
2019-05-26T09:48:09.612Z,95195.69
2019-05-26T09:50:38.256Z,95196.22
2019-05-26T09:53:06.891Z,95184.03
2019-05-26T09:55:35.634Z,95185.38
2019-05-26T09:58:04.211Z,95168.56
2019-05-26T10:00:32.884Z,95168.56
2019-05-26T10:03:01.512Z,95170.52
2019-05-26T10:05:30.183Z,95164.95
2019-05-26T10:07:58.928Z,95160.03
2019-05-26T10:10:27.546Z,95157.72
2019-05-26T10:12:56.352Z,95157.72
2019-05-26T10:15:25.006Z,95137.00
2019-05-26T10:17:53.554Z,95163.09
2019-05-26T10:20:22.193Z,95155.17
2019-05-26T10:22:50.913Z,95152.25
2019-05-26T10:25:19.547Z,95153.78
2019-05-26T10:27:48.169Z,95155.41
2019-05-26T10:30:17.244Z,95152.92
2019-05-26T10:32:45.874Z,95146.74
2019-05-26T10:35:15.705Z,95139.83
2019-05-26T10:37:44.340Z,95147.95
2019-05-26T10:40:14.236Z,95142.83
2019-05-26T10:42:42.793Z,95148.36
2019-05-26T10:45:11.821Z,95139.07
2019-05-26T10:47:40.583Z,95137.06
2019-05-26T10:50:10.033Z,95129.58
2019-05-26T10:52:38.647Z,95120.22
2019-05-26T10:55:08.188Z,95121.68
2019-05-26T10:57:36.812Z,95124.25
2019-05-26T11:00:10.620Z,95117.97
2019-05-26T11:02:39.249Z,95115.83
2019-05-26T11:05:08.360Z,95113.06
2019-05-26T11:07:37.117Z,95122.35
2019-05-26T11:10:07.572Z,95116.61
2019-05-26T11:12:36.209Z,95107.70
2019-05-26T11:15:07.805Z,95105.74
2019-05-26T11:17:36.443Z,95106.70
2019-05-26T11:20:09.890Z,95103.80
2019-05-26T11:22:38.551Z,95098.31
2019-05-26T11:25:07.876Z,95092.99
2019-05-26T11:27:36.533Z,95093.08
2019-05-26T11:30:10.024Z,95097.77
2019-05-26T11:32:38.674Z,95088.77
2019-05-26T11:35:08.214Z,95088.94
2019-05-26T11:37:36.892Z,95084.75
2019-05-26T11:40:09.843Z,95083.16
2019-05-26T11:42:38.557Z,95087.20
2019-05-26T11:45:08.905Z,95081.24
2019-05-26T11:47:37.541Z,95078.02
2019-05-26T11:50:07.767Z,95072.77
2019-05-26T11:52:36.496Z,95075.28
2019-05-26T11:55:08.693Z,95069.18
2019-05-26T11:57:37.666Z,95071.01
2019-05-26T12:00:08.802Z,95068.12
2019-05-26T12:02:38.381Z,95071.00
2019-05-26T12:05:08.211Z,95069.87
2019-05-26T12:07:36.878Z,95066.73
2019-05-26T12:10:07.666Z,95069.80
2019-05-26T12:12:36.352Z,95065.88
2019-05-26T12:15:07.259Z,95067.75
2019-05-26T12:17:36.082Z,95064.64
2019-05-26T12:20:06.434Z,95066.74
2019-05-26T12:22:35.157Z,95067.23
2019-05-26T12:25:05.625Z,95067.31
2019-05-26T12:27:34.260Z,95064.06
2019-05-26T12:30:03.025Z,95058.94
2019-05-26T12:32:31.651Z,95056.46
2019-05-26T12:35:00.214Z,95050.12
2019-05-26T12:37:28.852Z,95052.33
2019-05-26T12:39:57.538Z,95047.37
2019-05-26T12:42:26.204Z,95042.59
2019-05-26T12:44:54.857Z,95047.42
2019-05-26T12:47:23.432Z,95051.39
2019-05-26T12:49:52.075Z,95041.45
2019-05-26T12:52:20.776Z,95036.88
2019-05-26T12:54:49.343Z,95034.95
2019-05-26T12:57:18.009Z,95033.94
2019-05-26T12:59:46.637Z,95036.28
2019-05-26T13:02:15.300Z,95026.70
2019-05-26T13:04:43.942Z,95028.49
2019-05-26T13:07:12.565Z,95029.59
2019-05-26T13:09:41.271Z,95024.40
2019-05-26T13:12:09.909Z,95024.41
2019-05-26T13:14:38.534Z,95020.15
2019-05-26T13:17:07.097Z,95019.72
2019-05-26T13:19:35.723Z,95021.48
2019-05-26T13:22:04.954Z,95020.80
2019-05-26T13:24:33.508Z,95017.47
2019-05-26T13:27:02.241Z,95010.56
2019-05-26T13:29:30.892Z,95021.05
2019-05-26T13:31:59.511Z,95011.56
2019-05-26T13:34:28.149Z,95016.48
2019-05-26T13:36:56.784Z,95014.28
2019-05-26T13:39:25.440Z,95009.62
2019-05-26T13:41:54.051Z,95008.78
2019-05-26T13:44:22.668Z,95010.99
2019-05-26T13:46:51.693Z,95008.62
2019-05-26T13:49:20.334Z,95008.52
2019-05-26T13:51:50.478Z,95005.31
2019-05-26T13:54:19.347Z,94999.41
2019-05-26T13:56:47.917Z,94997.93
2019-05-26T13:59:16.557Z,94997.54
2019-05-26T14:01:45.184Z,94997.42
2019-05-26T14:04:13.821Z,95002.57
2019-05-26T14:06:42.464Z,94993.78
2019-05-26T14:09:11.144Z,94991.10
2019-05-26T14:11:39.779Z,94995.14
2019-05-26T14:14:08.403Z,94990.88
2019-05-26T14:16:38.781Z,94997.27
2019-05-26T14:19:07.434Z,94991.66
2019-05-26T14:21:36.164Z,94994.44
2019-05-26T14:24:05.247Z,94998.23
2019-05-26T14:26:33.881Z,94989.69
2019-05-26T14:29:02.526Z,94996.59
2019-05-26T14:31:31.123Z,94997.42
2019-05-26T14:33:59.857Z,94996.14
2019-05-26T14:36:28.488Z,94993.95
2019-05-26T14:38:57.162Z,94993.14
2019-05-26T14:41:25.810Z,95000.19
2019-05-26T14:43:54.566Z,94992.01
2019-05-26T14:46:23.218Z,94996.67
2019-05-26T14:48:51.883Z,94993.10
2019-05-26T14:51:20.533Z,94993.45
2019-05-26T14:53:49.157Z,94985.54
2019-05-26T14:56:17.789Z,94986.48
2019-05-26T14:58:46.333Z,94984.98
2019-05-26T15:01:16.513Z,94984.48
2019-05-26T15:03:45.238Z,94981.59
2019-05-26T15:06:13.890Z,94979.86
2019-05-26T15:08:42.543Z,94982.20
2019-05-26T15:11:11.205Z,94982.29
2019-05-26T15:13:39.838Z,94981.94
2019-05-26T15:16:10.204Z,94984.05
2019-05-26T15:18:38.863Z,94987.86
2019-05-26T15:21:07.544Z,94983.30
2019-05-26T15:23:36.175Z,94985.30
2019-05-26T15:26:05.565Z,94982.20
2019-05-26T15:28:34.415Z,94988.16
2019-05-26T15:31:03.056Z,94988.89
2019-05-26T15:33:31.690Z,94983.95
2019-05-26T15:36:00.395Z,94985.21
2019-05-26T15:38:41.967Z,94980.78
2019-05-26T15:40:59.467Z,94987.19
2019-05-26T15:43:28.098Z,94982.55
2019-05-26T15:45:56.731Z,94984.13
2019-05-26T15:48:25.374Z,94981.45
2019-05-26T15:50:54.009Z,94981.83
2019-05-26T15:53:22.644Z,94988.86
2019-05-26T15:55:51.279Z,94986.97
2019-05-26T15:58:19.978Z,94987.39
2019-05-26T16:00:48.622Z,94990.17
2019-05-26T16:03:17.357Z,94990.03
2019-05-26T16:05:45.998Z,94991.89
2019-05-26T16:08:15.112Z,94995.16
2019-05-26T16:10:43.836Z,94998.83
2019-05-26T16:13:12.558Z,95001.07
2019-05-26T16:15:41.308Z,95005.18
2019-05-26T16:18:09.940Z,95008.64
2019-05-26T16:20:38.592Z,95004.02
2019-05-26T16:23:08.876Z,95007.86
2019-05-26T16:25:37.637Z,95003.39
2019-05-26T16:28:06.293Z,95006.73
2019-05-26T16:30:34.920Z,95006.44
2019-05-26T16:33:03.583Z,95010.58
2019-05-26T16:35:32.224Z,95008.60
2019-05-26T16:38:00.810Z,95015.17
2019-05-26T16:40:29.525Z,95011.63
2019-05-26T16:42:58.184Z,95017.58
2019-05-26T16:45:26.896Z,95021.60
2019-05-26T16:47:55.523Z,95022.63
2019-05-26T16:50:24.253Z,95017.03
2019-05-26T16:52:54.526Z,95020.18
2019-05-26T16:55:23.403Z,95023.78
2019-05-26T16:57:52.227Z,95025.41
2019-05-26T17:00:21.051Z,95025.11
2019-05-26T17:02:49.687Z,95019.17
2019-05-26T17:05:18.339Z,95030.78
2019-05-26T17:07:50.235Z,95030.92
2019-05-26T17:10:17.444Z,95035.61
2019-05-26T17:12:46.066Z,95037.48
2019-05-26T17:15:14.749Z,95037.91
2019-05-26T17:17:43.394Z,95042.84
2019-05-26T17:20:12.628Z,95048.13
2019-05-26T17:22:41.347Z,95037.14
2019-05-26T17:25:10.177Z,95042.28
2019-05-26T17:27:38.829Z,95043.25
2019-05-26T17:30:08.468Z,95052.02
2019-05-26T17:32:37.283Z,95048.17
2019-05-26T17:35:07.128Z,95050.72
2019-05-26T17:37:35.776Z,95050.66
2019-05-26T17:40:06.270Z,95047.83
2019-05-26T17:42:35.030Z,95047.90
2019-05-26T17:45:05.299Z,95046.13
2019-05-26T17:47:33.943Z,95045.94
2019-05-26T17:50:02.945Z,95058.03
2019-05-26T17:52:31.588Z,95050.70
2019-05-26T17:55:00.224Z,95047.64
2019-05-26T17:57:28.881Z,95047.64
2019-05-26T17:59:57.520Z,95045.12
2019-05-26T18:02:26.263Z,95050.24
2019-05-26T18:04:54.920Z,95053.00
2019-05-26T18:07:23.569Z,95053.34
2019-05-26T18:09:52.202Z,95049.52
2019-05-26T18:12:21.031Z,95053.77
2019-05-26T18:14:49.666Z,95062.23
2019-05-26T18:17:18.294Z,95056.52
2019-05-26T18:19:47.865Z,95061.83
2019-05-26T18:22:16.539Z,95060.23
2019-05-26T18:24:54.348Z,95066.41
2019-05-26T18:27:15.839Z,95073.58
2019-05-26T18:29:46.644Z,95075.23
2019-05-26T18:32:15.522Z,95084.56
2019-05-26T18:34:44.073Z,95088.56
2019-05-26T18:37:13.583Z,95099.65
2019-05-26T18:39:44.232Z,95100.34
2019-05-26T18:42:13.774Z,95103.52
2019-05-26T18:44:43.419Z,95108.80
2019-05-26T18:47:12.424Z,95097.99
2019-05-26T18:49:41.476Z,95106.69
2019-05-26T18:52:11.064Z,95101.42
2019-05-26T18:54:40.589Z,95103.62
2019-05-26T18:57:09.425Z,95110.82
2019-05-26T18:59:37.889Z,95107.39
2019-05-26T19:02:07.476Z,95105.81
2019-05-26T19:04:36.157Z,95110.63
2019-05-26T19:07:09.692Z,95111.98
2019-05-26T19:09:39.418Z,95105.52
2019-05-26T19:12:08.061Z,95108.44
2019-05-26T19:14:37.016Z,95120.11
2019-05-26T19:17:06.232Z,95122.77
2019-05-26T19:19:35.769Z,95123.03
2019-05-26T19:22:04.542Z,95120.39
2019-05-26T19:24:33.547Z,95125.41
2019-05-26T19:27:03.214Z,95132.53
2019-05-26T19:29:32.303Z,95133.45
2019-05-26T19:32:01.891Z,95147.13
2019-05-26T19:34:31.664Z,95139.48
2019-05-26T19:37:01.243Z,95140.28
2019-05-26T19:39:31.054Z,95139.48
2019-05-26T19:42:00.623Z,95137.90
2019-05-26T19:44:29.331Z,95139.68
2019-05-26T19:46:59.907Z,95124.76
2019-05-26T19:49:30.110Z,95145.27
2019-05-26T19:52:00.839Z,95137.61
2019-05-26T19:54:31.381Z,95142.62
2019-05-26T19:57:01.065Z,95134.91
2019-05-26T19:59:30.043Z,95135.50
2019-05-26T20:01:59.058Z,95138.41
2019-05-26T20:04:28.027Z,95135.58
2019-05-26T20:06:58.339Z,95127.94
2019-05-26T20:09:28.876Z,95133.78
2019-05-26T20:11:57.496Z,95117.48
2019-05-26T20:14:28.058Z,95108.33
2019-05-26T20:16:57.075Z,95111.33
2019-05-26T20:19:27.527Z,95117.47
2019-05-26T20:21:56.301Z,95118.52
2019-05-26T20:24:25.261Z,95110.92
2019-05-26T20:26:54.742Z,95115.09
2019-05-26T20:29:27.069Z,95118.37
2019-05-26T20:31:56.052Z,95113.19
2019-05-26T20:34:24.684Z,95118.47
2019-05-26T20:36:54.441Z,95122.42
2019-05-26T20:39:23.418Z,95123.18
2019-05-26T20:41:52.401Z,95124.01
2019-05-26T20:44:21.979Z,95119.00
2019-05-26T20:46:51.444Z,95120.06
2019-05-26T20:49:21.040Z,95132.09
2019-05-26T20:51:50.485Z,95133.84
2019-05-26T20:54:19.581Z,95141.52
2019-05-26T20:56:48.156Z,95142.57
2019-05-26T20:59:17.106Z,95140.99
2019-05-26T21:01:45.740Z,95148.89
2019-05-26T21:04:14.720Z,95147.84
2019-05-26T21:06:44.311Z,95145.73
2019-05-26T21:09:13.258Z,95145.47
2019-05-26T21:11:41.898Z,95154.42
2019-05-26T21:14:10.909Z,95150.21
2019-05-26T21:16:40.492Z,95146.48
2019-05-26T21:19:10.079Z,95150.70
2019-05-26T21:21:39.033Z,95151.76
2019-05-26T21:24:08.646Z,95156.27
2019-05-26T21:26:38.135Z,95152.58
2019-05-26T21:29:06.919Z,95148.10
2019-05-26T21:31:35.884Z,95152.58
2019-05-26T21:34:04.894Z,95145.50
2019-05-26T21:36:33.945Z,95143.42
2019-05-26T21:39:02.914Z,95141.34
2019-05-26T21:41:31.564Z,95135.60
2019-05-26T21:44:00.326Z,95140.09
2019-05-26T21:46:29.953Z,95144.33
2019-05-26T21:48:59.528Z,95139.84
2019-05-26T21:51:28.145Z,95143.02
2019-05-26T21:53:58.198Z,95143.00
2019-05-26T21:56:27.150Z,95144.33
2019-05-26T21:58:56.805Z,95136.45
2019-05-26T22:01:25.757Z,95130.66
2019-05-26T22:03:54.943Z,95127.24
2019-05-26T22:06:24.555Z,95124.35
2019-05-26T22:08:55.721Z,95130.67
2019-05-26T22:11:25.139Z,95136.71
2019-05-26T22:13:55.183Z,95139.35
2019-05-26T22:16:24.865Z,95139.33
2019-05-26T22:18:54.736Z,95133.28
2019-05-26T22:21:23.671Z,95133.55
2019-05-26T22:23:53.200Z,95134.84
2019-05-26T22:26:22.784Z,95137.18
2019-05-26T22:28:51.522Z,95138.23
2019-05-26T22:31:21.688Z,95140.03
2019-05-26T22:33:51.249Z,95137.39
2019-05-26T22:36:20.786Z,95133.45
2019-05-26T22:38:49.542Z,95133.20
2019-05-26T22:41:18.166Z,95140.25
2019-05-26T22:43:46.745Z,95138.91
2019-05-26T22:46:15.294Z,95136.03
2019-05-26T22:48:43.865Z,95139.41
2019-05-26T22:51:12.499Z,95125.75
2019-05-26T22:53:41.165Z,95127.04
2019-05-26T22:56:09.798Z,95117.84
2019-05-26T22:58:38.353Z,95113.06
2019-05-26T23:01:07.027Z,95107.28
2019-05-26T23:03:35.588Z,95121.11
2019-05-26T23:06:04.426Z,95116.37
2019-05-26T23:08:33.118Z,95121.63
2019-05-26T23:11:01.746Z,95119.80
2019-05-26T23:13:30.401Z,95127.91
2019-05-26T23:15:59.030Z,95133.95
2019-05-26T23:18:27.930Z,95146.02
2019-05-26T23:20:56.578Z,95137.63
2019-05-26T23:23:25.140Z,95147.88
2019-05-26T23:25:53.716Z,95139.21
2019-05-26T23:28:22.344Z,95139.70
2019-05-26T23:30:51.030Z,95138.37
2019-05-26T23:33:19.665Z,95138.08
2019-05-26T23:35:48.301Z,95138.37
2019-05-26T23:38:16.946Z,95136.55
2019-05-26T23:40:45.607Z,95134.94
2019-05-26T23:43:14.168Z,95129.70
2019-05-26T23:45:42.794Z,95134.11
2019-05-26T23:48:11.660Z,95129.36
2019-05-26T23:50:40.280Z,95117.55
2019-05-26T23:53:08.905Z,95125.63
2019-05-26T23:55:37.544Z,95130.92
2019-05-26T23:58:06.177Z,95125.69
